createdAt,value
2022-08-09T00:00:23.096Z,16.94
2022-08-09T00:02:51.522Z,16.93
2022-08-09T00:06:18.689Z,16.92
2022-08-09T00:08:32.035Z,16.95
2022-08-09T00:11:05.869Z,16.98
2022-08-09T00:13:50.310Z,17.02
2022-08-09T00:16:26.190Z,17.05
2022-08-09T00:19:10.289Z,17.09
2022-08-09T00:21:55.547Z,17.12
2022-08-09T00:24:27.252Z,17.13
2022-08-09T00:26:55.989Z,17.14
2022-08-09T00:30:23.397Z,17.13
2022-08-09T00:32:13.115Z,17.14
2022-08-09T00:34:52.949Z,17.15
2022-08-09T00:37:20.065Z,17.13
2022-08-09T00:40:08.966Z,17.16
2022-08-09T00:44:13.805Z,17.17
2022-08-09T00:45:21.540Z,17.18
2022-08-09T00:47:48.513Z,17.18
2022-08-09T00:50:15.782Z,17.20
2022-08-09T00:52:43.899Z,17.21
2022-08-09T00:55:32.741Z,17.20
2022-08-09T00:57:59.535Z,17.22
2022-08-09T01:00:28.527Z,17.24
2022-08-09T01:03:31.109Z,17.27
2022-08-09T01:06:17.592Z,17.30
2022-08-09T01:09:42.095Z,17.29
2022-08-09T01:12:53.186Z,17.30
2022-08-09T01:15:29.732Z,17.29
2022-08-09T01:18:30.556Z,17.33
2022-08-09T01:21:44.609Z,17.32
2022-08-09T01:24:39.643Z,17.32
2022-08-09T01:27:19.959Z,17.32
2022-08-09T01:30:00.711Z,17.29
2022-08-09T01:32:38.760Z,17.30
2022-08-09T01:35:37.219Z,17.30
2022-08-09T01:38:18.287Z,17.30
2022-08-09T01:41:09.434Z,17.31
2022-08-09T01:43:52.021Z,17.30
2022-08-09T01:46:31.673Z,17.30
2022-08-09T01:49:12.724Z,17.29
2022-08-09T01:51:55.816Z,17.27
2022-08-09T01:54:40.964Z,17.21
2022-08-09T01:57:29.064Z,17.19
2022-08-09T02:00:19.151Z,17.17
2022-08-09T02:02:53.956Z,17.14
2022-08-09T02:05:38.207Z,17.12
2022-08-09T02:08:35.716Z,17.04
2022-08-09T02:11:16.988Z,16.98
2022-08-09T02:13:55.244Z,16.92
2022-08-09T02:16:53.406Z,16.87
2022-08-09T02:19:38.949Z,16.84
2022-08-09T02:23:00.317Z,16.78
2022-08-09T02:25:41.980Z,16.76
2022-08-09T02:28:27.102Z,16.76
2022-08-09T02:31:26.026Z,16.77
2022-08-09T02:34:06.882Z,16.79
2022-08-09T02:36:52.548Z,16.77
2022-08-09T02:39:34.186Z,16.77
2022-08-09T02:42:24.761Z,16.74
2022-08-09T02:45:09.608Z,16.74
2022-08-09T02:47:57.391Z,16.70
2022-08-09T02:50:56.261Z,16.75
2022-08-09T02:53:37.130Z,16.81
2022-08-09T02:56:10.266Z,16.81
2022-08-09T02:58:41.342Z,16.77
2022-08-09T03:01:21.886Z,16.77
2022-08-09T03:04:16.813Z,16.80
2022-08-09T03:06:49.179Z,16.80
2022-08-09T03:09:20.586Z,16.81
2022-08-09T03:12:05.519Z,16.84
2022-08-09T03:14:36.544Z,16.86
2022-08-09T03:17:05.762Z,16.88
2022-08-09T03:19:58.232Z,16.86
2022-08-09T03:22:30.315Z,16.86
2022-08-09T03:25:21.471Z,16.85
2022-08-09T03:27:52.770Z,16.85
2022-08-09T03:30:30.095Z,16.85
2022-08-09T03:33:15.314Z,16.88
2022-08-09T03:36:16.011Z,16.91
2022-08-09T03:38:43.468Z,16.91
2022-08-09T03:41:18.395Z,16.94
2022-08-09T03:44:03.401Z,16.93
2022-08-09T03:46:36.934Z,16.96
2022-08-09T03:49:08.668Z,16.96
2022-08-09T03:51:58.538Z,16.95
2022-08-09T03:54:38.423Z,16.94
2022-08-09T03:57:20.252Z,16.95
2022-08-09T03:59:56.067Z,17.01
2022-08-09T04:02:32.803Z,17.01
2022-08-09T04:05:06.757Z,16.99
2022-08-09T04:07:52.906Z,17.03
2022-08-09T04:10:28.778Z,17.03
2022-08-09T04:13:00.736Z,17.04
2022-08-09T04:15:40.563Z,17.04
2022-08-09T04:18:18.111Z,17.02
2022-08-09T04:20:51.277Z,17.05
2022-08-09T04:23:24.362Z,17.03
2022-08-09T04:25:53.327Z,17.04
2022-08-09T04:28:33.103Z,17.07
2022-08-09T04:31:09.288Z,17.14
2022-08-09T04:33:52.923Z,17.15
2022-08-09T04:36:30.212Z,17.18
2022-08-09T04:39:08.792Z,17.20
2022-08-09T04:41:43.392Z,17.21
2022-08-09T04:44:14.544Z,17.23
2022-08-09T04:46:58.219Z,17.23
2022-08-09T04:49:52.441Z,17.27
2022-08-09T04:52:28.915Z,17.32
2022-08-09T04:55:01.380Z,17.38
2022-08-09T04:57:53.895Z,17.36
2022-08-09T05:00:17.267Z,17.36
2022-08-09T05:02:48.755Z,17.40
2022-08-09T05:05:32.171Z,17.45
2022-08-09T05:08:08.265Z,17.53
2022-08-09T05:10:36.779Z,17.60
2022-08-09T05:13:04.197Z,17.64
2022-08-09T05:15:43.242Z,17.69
2022-08-09T05:18:39.043Z,17.77
2022-08-09T05:21:09.806Z,17.86
2022-08-09T05:23:57.115Z,17.94
2022-08-09T05:26:35.771Z,18.00
2022-08-09T05:29:05.368Z,18.03
2022-08-09T05:31:39.823Z,18.11
2022-08-09T05:34:16.894Z,18.16
2022-08-09T05:36:47.105Z,18.25
2022-08-09T05:39:28.640Z,18.33
2022-08-09T05:42:01.512Z,18.35
2022-08-09T05:44:33.248Z,18.37
2022-08-09T05:47:04.943Z,18.41
2022-08-09T05:50:29.979Z,18.42
2022-08-09T05:52:24.739Z,18.52
2022-08-09T05:54:52.298Z,18.62
2022-08-09T05:57:19.567Z,18.78
2022-08-09T05:59:52.542Z,18.80
2022-08-09T06:02:20.143Z,18.83
2022-08-09T06:04:49.054Z,18.91
2022-08-09T06:07:21.300Z,19.03
2022-08-09T06:09:54.880Z,19.21
2022-08-09T06:12:31.130Z,19.19
2022-08-09T06:15:01.347Z,19.36
2022-08-09T06:17:39.902Z,19.45
2022-08-09T06:20:09.220Z,19.51
2022-08-09T06:22:36.894Z,19.55
2022-08-09T06:25:04.930Z,19.54
2022-08-09T06:27:42.175Z,19.51
2022-08-09T06:30:13.937Z,19.66
2022-08-09T06:32:58.900Z,19.75
2022-08-09T06:35:35.804Z,20.02
2022-08-09T06:38:17.057Z,20.18
2022-08-09T06:40:46.334Z,19.90
2022-08-09T06:43:14.253Z,19.83
2022-08-09T06:46:07.785Z,19.79
2022-08-09T06:48:31.068Z,19.76
2022-08-09T06:51:00.197Z,19.61
2022-08-09T06:53:33.198Z,19.70
2022-08-09T06:56:07.920Z,19.98
2022-08-09T07:00:46.868Z,20.31
2022-08-09T07:01:53.766Z,20.78
2022-08-09T07:04:20.158Z,20.85
2022-08-09T07:06:53.360Z,20.85
2022-08-09T07:09:57.105Z,21.22
2022-08-09T07:12:18.211Z,21.66
2022-08-09T07:14:50.745Z,21.65
2022-08-09T07:17:20.318Z,21.66
2022-08-09T07:19:51.039Z,21.73
2022-08-09T07:22:42.224Z,21.53
2022-08-09T07:25:11.934Z,21.68
2022-08-09T07:27:53.639Z,21.98
2022-08-09T07:30:25.218Z,22.37
2022-08-09T07:32:52.881Z,22.75
2022-08-09T07:35:22.586Z,23.05
2022-08-09T07:37:50.660Z,23.27
2022-08-09T07:40:26.732Z,23.53
2022-08-09T07:42:59.948Z,23.71
2022-08-09T07:45:39.626Z,23.63
2022-08-09T07:48:28.530Z,23.92
2022-08-09T07:51:10.262Z,24.15
2022-08-09T07:54:06.855Z,24.04
2022-08-09T07:56:38.915Z,24.56
2022-08-09T07:59:25.189Z,24.17
2022-08-09T08:01:55.993Z,23.14
2022-08-09T08:04:31.889Z,23.24
2022-08-09T08:07:14.932Z,23.62
2022-08-09T08:10:08.027Z,23.80
2022-08-09T08:12:45.616Z,23.56
2022-08-09T08:15:24.073Z,23.45
2022-08-09T08:17:57.857Z,24.04
2022-08-09T08:20:32.608Z,24.76
2022-08-09T08:23:15.907Z,25.01
2022-08-09T08:25:48.339Z,25.14
2022-08-09T08:28:26.107Z,24.98
2022-08-09T08:31:14.221Z,24.56
2022-08-09T08:33:53.832Z,24.69
2022-08-09T08:36:29.715Z,24.66
2022-08-09T08:39:00.307Z,24.55
2022-08-09T08:41:50.291Z,24.93
2022-08-09T08:44:26.822Z,25.04
2022-08-09T08:47:02.289Z,25.28
2022-08-09T08:49:46.793Z,24.42
2022-08-09T08:55:18.970Z,24.32
2022-08-09T08:57:56.919Z,24.45
2022-08-09T09:00:34.302Z,24.92
2022-08-09T09:03:11.408Z,24.66
2022-08-09T09:05:58.931Z,24.70
2022-08-09T09:08:43.062Z,24.90
2022-08-09T09:11:13.409Z,24.89
2022-08-09T09:13:57.301Z,24.85
2022-08-09T09:16:35.164Z,25.25
2022-08-09T09:22:11.919Z,25.76
2022-08-09T09:24:51.957Z,25.35
2022-08-09T09:28:05.075Z,25.20
2022-08-09T09:30:31.571Z,25.17
2022-08-09T09:33:15.549Z,25.43
2022-08-09T09:36:20.568Z,25.40
2022-08-09T09:38:57.222Z,25.71
2022-08-09T09:41:25.002Z,25.98
2022-08-09T09:44:11.642Z,26.02
2022-08-09T09:46:50.565Z,25.35
2022-08-09T09:49:56.338Z,25.05
2022-08-09T09:52:35.742Z,25.26
2022-08-09T09:55:24.173Z,25.20
2022-08-09T09:58:15.792Z,25.17
2022-08-09T10:00:59.098Z,25.34
2022-08-09T10:03:57.758Z,25.63
2022-08-09T10:06:42.446Z,25.33
2022-08-09T10:09:23.152Z,25.59
2022-08-09T10:12:26.942Z,25.80
2022-08-09T10:14:51.753Z,25.88
2022-08-09T10:17:38.893Z,25.92
2022-08-09T10:20:33.069Z,25.72
2022-08-09T10:23:33.531Z,26.05
2022-08-09T10:26:07.498Z,26.16
2022-08-09T10:28:40.474Z,26.38
2022-08-09T10:32:20.920Z,26.57
2022-08-09T10:34:08.362Z,26.61
2022-08-09T10:36:42.249Z,26.16
2022-08-09T10:39:16.014Z,26.38
2022-08-09T10:41:48.302Z,26.42
2022-08-09T10:44:30.526Z,26.44
2022-08-09T10:48:19.328Z,26.02
2022-08-09T10:51:29.736Z,26.03
2022-08-09T10:54:13.909Z,25.99
2022-08-09T10:56:43.863Z,25.50
2022-08-09T10:59:30.699Z,25.76
2022-08-09T11:03:15.623Z,25.97
2022-08-09T11:05:24.961Z,26.08
2022-08-09T11:08:47.548Z,26.10
2022-08-09T11:11:18.439Z,25.72
2022-08-09T11:13:50.633Z,26.05
2022-08-09T11:16:40.995Z,26.26
2022-08-09T11:19:10.964Z,26.22
2022-08-09T11:22:16.558Z,26.24
2022-08-09T11:25:19.222Z,25.86
2022-08-09T11:28:08.076Z,25.82
2022-08-09T11:30:48.105Z,25.65
2022-08-09T11:33:17.953Z,25.69
2022-08-09T11:35:56.449Z,26.12
2022-08-09T11:38:35.058Z,26.03
2022-08-09T11:41:15.789Z,25.83
2022-08-09T11:43:49.389Z,26.03
2022-08-09T11:46:33.038Z,25.87
2022-08-09T11:49:05.201Z,26.22
2022-08-09T11:53:16.041Z,26.79
2022-08-09T11:55:52.322Z,26.85
2022-08-09T11:58:30.325Z,26.70
2022-08-09T12:01:08.938Z,26.45
2022-08-09T12:03:57.428Z,25.92
2022-08-09T12:06:32.610Z,25.79
2022-08-09T12:09:15.086Z,25.80
2022-08-09T12:12:12.977Z,25.62
2022-08-09T12:15:04.144Z,25.29
2022-08-09T12:17:44.504Z,25.28
2022-08-09T12:20:34.616Z,25.15
2022-08-09T12:23:04.662Z,25.06
2022-08-09T12:25:38.048Z,25.59
2022-08-09T12:28:58.955Z,25.86
2022-08-09T12:31:58.277Z,26.44
2022-08-09T12:34:31.388Z,26.86
2022-08-09T12:37:21.713Z,27.15
2022-08-09T12:40:18.085Z,27.24
2022-08-09T12:42:50.654Z,27.21
2022-08-09T12:45:32.673Z,27.29
2022-08-09T12:48:20.269Z,27.31
2022-08-09T12:50:58.134Z,27.25
2022-08-09T12:53:40.747Z,26.93
2022-08-09T12:56:43.882Z,26.46
2022-08-09T12:59:23.952Z,26.32
2022-08-09T13:01:59.845Z,26.12
2022-08-09T13:04:37.153Z,25.96
2022-08-09T13:07:19.978Z,25.90
2022-08-09T13:10:04.662Z,25.99
2022-08-09T13:12:32.147Z,26.13
2022-08-09T13:15:10.416Z,26.03
2022-08-09T13:18:03.203Z,25.95
2022-08-09T13:21:03.967Z,25.85
2022-08-09T13:24:17.459Z,25.89
2022-08-09T13:26:50.049Z,25.99
2022-08-09T13:29:28.541Z,26.25
2022-08-09T13:32:17.773Z,26.36
2022-08-09T13:34:49.389Z,26.40
2022-08-09T13:37:50.824Z,26.66
2022-08-09T13:41:50.812Z,26.99
2022-08-09T13:42:57.763Z,27.34
2022-08-09T13:45:32.143Z,27.30
2022-08-09T13:48:11.875Z,26.97
2022-08-09T13:50:42.815Z,26.59
2022-08-09T13:53:10.444Z,26.22
2022-08-09T13:55:37.915Z,26.05
2022-08-09T13:58:05.277Z,25.89
2022-08-09T14:00:48.236Z,26.03
2022-08-09T14:04:02.547Z,26.01
2022-08-09T14:06:25.300Z,25.80
2022-08-09T14:08:54.892Z,25.60
2022-08-09T14:11:22.248Z,25.73
2022-08-09T14:14:22.539Z,25.97
2022-08-09T14:16:37.655Z,26.63
2022-08-09T14:19:07.828Z,27.24
2022-08-09T14:21:35.023Z,27.62
2022-08-09T14:24:10.380Z,27.95
2022-08-09T14:26:51.176Z,28.18
2022-08-09T14:30:04.052Z,28.53
2022-08-09T14:32:11.311Z,28.65
2022-08-09T14:34:41.307Z,28.93
2022-08-09T14:37:09.727Z,29.26
2022-08-09T14:39:47.977Z,29.19
2022-08-09T14:42:32.026Z,28.49
2022-08-09T14:46:40.122Z,28.81
2022-08-09T14:47:58.249Z,29.27
2022-08-09T14:50:34.604Z,29.49
2022-08-09T14:53:11.355Z,29.93
2022-08-09T14:55:42.112Z,29.85
2022-08-09T14:58:11.943Z,29.85
2022-08-09T15:00:39.864Z,29.99
2022-08-09T15:03:10.949Z,29.92
2022-08-09T15:05:40.252Z,30.17
2022-08-09T15:08:20.311Z,29.34
2022-08-09T15:11:00.597Z,28.33
2022-08-09T15:13:47.750Z,28.21
2022-08-09T15:16:15.923Z,28.11
2022-08-09T15:18:43.094Z,28.09
2022-08-09T15:21:58.157Z,27.77
2022-08-09T15:24:06.020Z,27.85
2022-08-09T15:26:46.441Z,28.50
2022-08-09T15:30:58.542Z,29.07
2022-08-09T15:32:04.046Z,29.74
2022-08-09T15:34:35.164Z,30.18
2022-08-09T15:37:38.064Z,31.00
2022-08-09T15:40:19.836Z,30.20
2022-08-09T15:42:50.826Z,30.35
2022-08-09T15:45:22.082Z,31.08
2022-08-09T15:48:05.039Z,31.08
2022-08-09T15:50:38.825Z,30.90
2022-08-09T15:53:18.776Z,30.08
2022-08-09T15:56:20.948Z,29.58
2022-08-09T15:58:41.054Z,29.61
2022-08-09T16:01:08.484Z,29.59
2022-08-09T16:03:38.796Z,29.74
2022-08-09T16:06:29.436Z,30.24
2022-08-09T16:09:01.295Z,30.32
2022-08-09T16:11:33.167Z,30.41
2022-08-09T16:14:07.151Z,30.08
2022-08-09T16:16:37.904Z,29.63
2022-08-09T16:19:09.643Z,29.32
2022-08-09T16:21:40.819Z,29.40
2022-08-09T16:24:29.715Z,29.29
2022-08-09T16:26:57.921Z,28.55
2022-08-09T16:29:36.666Z,28.18
2022-08-09T16:32:19.170Z,27.75
2022-08-09T16:34:56.626Z,27.40
2022-08-09T16:37:54.095Z,26.96
2022-08-09T16:40:29.659Z,26.73
2022-08-09T16:43:06.431Z,26.64
2022-08-09T16:45:33.766Z,26.64
2022-08-09T16:48:42.959Z,26.58
2022-08-09T16:50:49.910Z,26.47
2022-08-09T16:53:34.049Z,26.37
2022-08-09T16:56:07.653Z,26.09
2022-08-09T16:58:42.750Z,26.13
2022-08-09T17:01:23.539Z,25.86
2022-08-09T17:03:52.238Z,25.68
2022-08-09T17:06:31.184Z,25.45
2022-08-09T17:09:17.801Z,25.29
2022-08-09T17:11:47.982Z,25.28
2022-08-09T17:14:28.148Z,25.19
2022-08-09T17:17:02.787Z,24.96
2022-08-09T17:19:47.652Z,24.89
2022-08-09T17:22:28.877Z,24.97
2022-08-09T17:25:10.002Z,24.95
2022-08-09T17:27:49.370Z,24.86
2022-08-09T17:30:30.944Z,24.72
2022-08-09T17:33:22.939Z,24.58
2022-08-09T17:35:50.814Z,24.86
2022-08-09T17:38:30.744Z,25.12
2022-08-09T17:41:02.213Z,24.95
2022-08-09T17:43:35.465Z,24.65
2022-08-09T17:46:09.046Z,24.19
2022-08-09T17:48:52.288Z,24.26
2022-08-09T17:51:21.995Z,23.84
2022-08-09T17:53:54.667Z,23.49
2022-08-09T17:56:35.622Z,23.38
2022-08-09T17:59:11.791Z,23.27
2022-08-09T18:02:12.255Z,23.20
2022-08-09T18:04:31.180Z,23.14
2022-08-09T18:06:59.439Z,23.08
2022-08-09T18:09:35.856Z,23.03
2022-08-09T18:12:19.594Z,22.98
2022-08-09T18:14:54.398Z,22.96
2022-08-09T18:18:01.642Z,22.96
2022-08-09T18:20:55.427Z,22.82
2022-08-09T18:23:04.893Z,22.66
2022-08-09T18:25:52.576Z,22.65
2022-08-09T18:30:42.022Z,22.63
2022-08-09T18:31:14.772Z,22.50
2022-08-09T18:33:53.673Z,22.49
2022-08-09T18:36:26.046Z,22.41
2022-08-09T18:39:02.626Z,22.33
2022-08-09T18:41:35.105Z,22.19
2022-08-09T18:44:13.242Z,22.10
2022-08-09T18:46:47.334Z,22.02
2022-08-09T18:49:19.192Z,21.94
2022-08-09T18:51:54.644Z,21.87
2022-08-09T18:54:28.395Z,21.85
2022-08-09T18:56:56.737Z,21.68
2022-08-09T18:59:37.445Z,21.61
2022-08-09T19:02:18.151Z,21.56
2022-08-09T19:04:47.965Z,21.59
2022-08-09T19:07:32.487Z,21.67
2022-08-09T19:10:15.568Z,21.63
2022-08-09T19:12:50.735Z,21.54
2022-08-09T19:15:22.186Z,21.45
2022-08-09T19:17:56.381Z,21.36
2022-08-09T19:20:24.401Z,21.23
2022-08-09T19:22:54.491Z,21.13
2022-08-09T19:25:41.935Z,21.06
2022-08-09T19:28:13.411Z,21.01
2022-08-09T19:30:44.654Z,20.91
2022-08-09T19:33:19.396Z,20.86
2022-08-09T19:35:58.319Z,20.83
2022-08-09T19:38:27.746Z,20.73
2022-08-09T19:40:59.747Z,20.68
2022-08-09T19:44:00.430Z,20.59
2022-08-09T19:46:16.450Z,20.45
2022-08-09T19:50:10.139Z,20.32
2022-08-09T19:51:54.935Z,20.25
2022-08-09T19:54:28.279Z,20.22
2022-08-09T19:56:56.681Z,20.22
2022-08-09T19:59:58.546Z,20.27
2022-08-09T20:02:17.353Z,20.31
2022-08-09T20:05:01.981Z,20.22
2022-08-09T20:07:59.001Z,20.10
2022-08-09T20:10:34.000Z,20.12
2022-08-09T20:13:05.012Z,20.11
2022-08-09T20:16:35.369Z,20.12
2022-08-09T20:18:22.345Z,20.00
2022-08-09T20:20:55.056Z,19.87
2022-08-09T20:23:23.619Z,19.80
2022-08-09T20:25:53.571Z,19.68
2022-08-09T20:28:32.040Z,19.59
2022-08-09T20:31:13.734Z,19.61
2022-08-09T20:33:44.350Z,19.57
2022-08-09T20:36:13.879Z,19.61
2022-08-09T20:39:18.781Z,19.60
2022-08-09T20:41:35.292Z,19.58
2022-08-09T20:44:10.081Z,19.53
2022-08-09T20:46:44.770Z,19.47
2022-08-09T20:49:16.753Z,19.49
2022-08-09T20:51:50.657Z,19.43
2022-08-09T20:54:18.215Z,19.39
2022-08-09T20:56:49.894Z,19.38
2022-08-09T21:00:19.091Z,19.41
2022-08-09T21:02:17.383Z,19.39
2022-08-09T21:05:56.504Z,19.32
2022-08-09T21:07:40.293Z,19.26
2022-08-09T21:10:11.977Z,19.26
2022-08-09T21:12:39.362Z,19.19
2022-08-09T21:15:12.639Z,19.08
2022-08-09T21:18:29.761Z,19.02
2022-08-09T21:20:30.268Z,18.92
2022-08-09T21:22:59.736Z,18.86
2022-08-09T21:25:54.188Z,18.83
2022-08-09T21:28:34.529Z,18.75
2022-08-09T21:31:13.575Z,18.71
2022-08-09T21:33:50.333Z,18.62
2022-08-09T21:36:27.916Z,18.54
2022-08-09T21:38:59.457Z,18.52
2022-08-09T21:42:03.526Z,18.48
2022-08-09T21:44:32.711Z,18.39
2022-08-09T21:47:09.826Z,18.27
2022-08-09T21:49:42.634Z,18.25
2022-08-09T21:52:20.301Z,18.21
2022-08-09T21:55:03.132Z,18.18
2022-08-09T21:57:59.201Z,18.16
2022-08-09T22:00:33.777Z,18.14
2022-08-09T22:03:19.139Z,18.04
2022-08-09T22:05:47.621Z,18.06
2022-08-09T22:08:19.042Z,18.07
2022-08-09T22:11:49.645Z,18.01
2022-08-09T22:13:37.469Z,18.10
2022-08-09T22:16:09.249Z,18.09
2022-08-09T22:18:53.282Z,17.94
2022-08-09T22:21:44.818Z,17.87
2022-08-09T22:24:16.967Z,17.82
2022-08-09T22:26:51.040Z,17.83
2022-08-09T22:29:25.548Z,17.80
2022-08-09T22:31:57.404Z,17.78
2022-08-09T22:34:28.828Z,17.74
2022-08-09T22:36:59.645Z,17.71
2022-08-09T22:39:57.135Z,17.68
2022-08-09T22:42:22.337Z,17.58
2022-08-09T22:45:00.038Z,17.48
2022-08-09T22:48:11.475Z,17.49
2022-08-09T22:50:16.652Z,17.45
2022-08-09T22:52:43.638Z,17.42
2022-08-09T22:55:22.698Z,17.42
2022-08-09T22:58:00.134Z,17.45
2022-08-09T23:00:29.409Z,17.41
2022-08-09T23:02:57.226Z,17.25
2022-08-09T23:05:25.610Z,17.16
2022-08-09T23:08:22.330Z,17.19
2022-08-09T23:10:50.954Z,17.12
2022-08-09T23:13:17.929Z,17.06
2022-08-09T23:16:03.421Z,17.00
2022-08-09T23:18:31.283Z,16.97
2022-08-09T23:20:58.492Z,16.95
2022-08-09T23:23:25.538Z,16.91
2022-08-09T23:25:52.633Z,16.90
2022-08-09T23:28:19.687Z,16.88
2022-08-09T23:30:51.994Z,16.86
2022-08-09T23:33:22.132Z,16.80
2022-08-09T23:36:07.136Z,16.84
2022-08-09T23:38:36.073Z,16.82
2022-08-09T23:41:27.954Z,16.80
2022-08-09T23:43:59.607Z,16.77
2022-08-09T23:46:29.643Z,16.81
2022-08-09T23:48:59.108Z,16.77
2022-08-09T23:51:27.795Z,16.77
2022-08-09T23:54:02.621Z,16.74
2022-08-09T23:56:51.947Z,16.68
2022-08-09T23:59:22.416Z,16.66
